Attica, Indiana
Current Conditions -  °F | °C
As of 11:54 AM on Friday 24 Oct 2014 (Local Time) from KLAF Reporting Station
Broken Clouds Broken Clouds  
Wind Chill: 58°   Ceiling: 2300
Heat Index: 58°   Visibility: 10mi
Dew Point: 49°   Wind: 5mph
Humidity: 72%   Direction: 240°WSW
Pressure: 30.09"   Gusts: NA
Location:  40.29°N, 87.25°W
Report Text: KLAF 241554Z 24004KT 10SM BKN023 14/09 A3009 RMK AO2 SLP191 T01440094
Loading
Personal Weather Stations






























Interactive Weather Map New forecast layout! Learn more

10-Day Weather Forecast

Advertisements
Track Severe Weather on mobile